createdAt,value
2019-02-19T00:00:05.799Z,74.00
2019-02-19T00:02:34.581Z,74.00
2019-02-19T00:05:03.672Z,85.15
2019-02-19T00:07:32.585Z,78.45
2019-02-19T00:10:01.270Z,74.20
2019-02-19T00:12:30.146Z,79.35
2019-02-19T00:15:15.007Z,80.70
2019-02-19T00:17:43.650Z,83.10
2019-02-19T00:20:12.470Z,85.87
2019-02-19T00:22:41.370Z,88.40
2019-02-19T00:25:10.156Z,88.72
2019-02-19T00:27:38.855Z,78.20
2019-02-19T00:30:08.477Z,90.47
2019-02-19T00:32:37.153Z,88.60
2019-02-19T00:35:07.341Z,103.00
2019-02-19T00:37:36.331Z,82.12
2019-02-19T00:40:05.550Z,69.45
2019-02-19T00:42:34.629Z,70.87
2019-02-19T00:45:03.421Z,70.67
2019-02-19T00:47:32.206Z,70.97
2019-02-19T00:50:01.005Z,80.75
2019-02-19T00:52:29.765Z,81.08
2019-02-19T00:54:58.555Z,73.87
2019-02-19T00:57:27.450Z,74.95
2019-02-19T00:59:56.548Z,75.83
2019-02-19T01:02:25.335Z,77.55
2019-02-19T01:04:54.002Z,78.52
2019-02-19T01:07:22.635Z,84.37
2019-02-19T01:09:51.335Z,75.10
2019-02-19T01:12:19.969Z,78.75
2019-02-19T01:14:48.673Z,76.97
2019-02-19T01:17:17.438Z,82.33
2019-02-19T01:19:46.346Z,91.12
2019-02-19T01:22:15.003Z,84.92
2019-02-19T01:24:43.905Z,95.70
2019-02-19T01:27:12.615Z,98.47
2019-02-19T01:29:41.480Z,88.25
2019-02-19T01:32:10.142Z,89.30
2019-02-19T01:34:39.040Z,95.80
2019-02-19T01:37:07.827Z,95.35
2019-02-19T01:39:36.458Z,92.65
2019-02-19T01:42:05.165Z,91.95
2019-02-19T01:44:33.895Z,88.60
2019-02-19T01:47:02.784Z,84.37
2019-02-19T01:49:31.566Z,113.12
2019-02-19T01:52:00.453Z,89.80
2019-02-19T01:54:29.116Z,91.32
2019-02-19T01:56:57.896Z,85.72
2019-02-19T01:59:26.541Z,82.55
2019-02-19T02:01:55.185Z,77.15
2019-02-19T02:04:24.077Z,81.55
2019-02-19T02:06:52.696Z,76.62
2019-02-19T02:09:21.655Z,76.07
2019-02-19T02:11:50.438Z,71.82
2019-02-19T02:14:19.225Z,85.57
2019-02-19T02:16:47.975Z,77.17
2019-02-19T02:19:16.788Z,76.02
2019-02-19T02:21:45.692Z,72.37
2019-02-19T02:24:14.475Z,76.65
2019-02-19T02:26:43.180Z,71.10
2019-02-19T02:29:11.819Z,71.87
2019-02-19T02:31:40.835Z,73.72
2019-02-19T02:34:09.615Z,75.37
2019-02-19T02:36:38.307Z,68.70
2019-02-19T02:39:07.298Z,71.22
2019-02-19T02:41:35.976Z,63.73
2019-02-19T02:44:04.861Z,64.85
2019-02-19T02:46:33.655Z,66.92
2019-02-19T02:49:02.380Z,72.90
2019-02-19T02:51:31.237Z,64.65
2019-02-19T02:53:59.975Z,65.00
2019-02-19T02:56:28.918Z,63.42
2019-02-19T02:58:57.576Z,71.12
2019-02-19T03:01:26.481Z,71.07
2019-02-19T03:03:55.204Z,75.20
2019-02-19T03:06:25.693Z,70.28
2019-02-19T03:08:54.476Z,74.32
2019-02-19T03:11:23.177Z,68.00
2019-02-19T03:13:51.976Z,72.08
2019-02-19T03:16:20.932Z,77.60
2019-02-19T03:18:49.577Z,77.27
2019-02-19T03:21:18.248Z,76.17
2019-02-19T03:23:47.187Z,71.40
2019-02-19T03:26:15.976Z,64.65
2019-02-19T03:28:44.877Z,66.20
2019-02-19T03:31:13.676Z,65.87
2019-02-19T03:33:42.455Z,64.87
2019-02-19T03:36:11.186Z,66.35
2019-02-19T03:38:39.975Z,64.82
2019-02-19T03:41:08.795Z,63.00
2019-02-19T03:43:37.685Z,63.08
2019-02-19T03:46:11.962Z,70.00
2019-02-19T03:48:36.775Z,63.17
2019-02-19T03:51:05.696Z,65.30
2019-02-19T03:53:34.491Z,66.12
2019-02-19T03:56:03.185Z,62.85
2019-02-19T03:58:31.895Z,67.37
2019-02-19T04:01:00.840Z,66.85
2019-02-19T04:03:29.618Z,57.73
2019-02-19T04:05:58.407Z,66.60
2019-02-19T04:08:27.190Z,60.30
2019-02-19T04:10:55.980Z,68.35
2019-02-19T04:13:24.880Z,72.80
2019-02-19T04:15:53.662Z,66.90
2019-02-19T04:18:22.332Z,62.05
2019-02-19T04:20:51.232Z,73.70
2019-02-19T04:23:20.430Z,62.98
2019-02-19T04:25:49.200Z,68.30
2019-02-19T04:28:18.215Z,70.10
2019-02-19T04:30:47.105Z,76.05
2019-02-19T04:33:15.888Z,65.67
2019-02-19T04:35:44.716Z,75.20
2019-02-19T04:38:13.421Z,65.60
2019-02-19T04:40:42.350Z,71.10
2019-02-19T04:43:10.997Z,63.48
2019-02-19T04:45:39.920Z,57.35
2019-02-19T04:48:08.541Z,93.27
2019-02-19T04:50:37.495Z,64.58
2019-02-19T04:53:06.276Z,64.12
2019-02-19T04:55:35.015Z,60.20
2019-02-19T04:58:03.888Z,60.03
2019-02-19T05:00:32.638Z,87.10
2019-02-19T05:03:01.542Z,86.92
2019-02-19T05:05:30.315Z,87.27
2019-02-19T05:07:59.016Z,74.32
2019-02-19T05:10:27.886Z,54.35
2019-02-19T05:12:56.675Z,61.77
2019-02-19T05:15:25.453Z,53.60
2019-02-19T05:17:54.235Z,89.28
2019-02-19T05:20:23.028Z,86.37
2019-02-19T05:22:51.926Z,65.28
2019-02-19T05:25:20.757Z,274.12
2019-02-19T05:27:49.806Z,74.75
2019-02-19T05:30:18.607Z,63.83
2019-02-19T05:32:47.367Z,65.90
2019-02-19T05:35:16.210Z,75.57
2019-02-19T05:37:45.056Z,74.15
2019-02-19T05:40:13.735Z,67.15
2019-02-19T05:42:42.358Z,63.02
2019-02-19T05:45:11.166Z,63.58
2019-02-19T05:47:40.197Z,63.55
2019-02-19T05:50:10.630Z,66.00
2019-02-19T05:52:39.284Z,65.25
2019-02-19T05:55:08.802Z,58.45
2019-02-19T05:57:37.576Z,52.93
2019-02-19T06:00:09.798Z,55.55
2019-02-19T06:02:38.450Z,52.85
2019-02-19T06:05:09.497Z,55.55
2019-02-19T06:07:38.162Z,69.07
2019-02-19T06:10:10.225Z,79.70
2019-02-19T06:12:39.166Z,63.38
2019-02-19T06:15:10.791Z,58.78
2019-02-19T06:17:39.876Z,52.73
2019-02-19T06:20:09.723Z,56.02
2019-02-19T06:22:38.778Z,53.15
2019-02-19T06:25:09.478Z,56.90
2019-02-19T06:27:38.918Z,53.65
2019-02-19T06:30:10.977Z,49.60
2019-02-19T06:32:39.753Z,57.30
2019-02-19T06:35:09.821Z,56.15
2019-02-19T06:37:38.553Z,56.88
2019-02-19T06:40:15.566Z,56.90
2019-02-19T06:42:44.530Z,57.83
2019-02-19T06:45:13.265Z,48.75
2019-02-19T06:47:42.055Z,50.98
2019-02-19T06:50:10.880Z,56.90
2019-02-19T06:52:39.666Z,46.73
2019-02-19T06:55:08.780Z,50.20
2019-02-19T06:57:37.661Z,48.45
2019-02-19T07:00:12.170Z,50.00
2019-02-19T07:02:45.478Z,57.65
2019-02-19T07:05:18.766Z,57.70
2019-02-19T07:07:47.504Z,56.95
2019-02-19T07:10:16.303Z,50.40
2019-02-19T07:12:45.115Z,58.90
2019-02-19T07:15:13.900Z,51.10
2019-02-19T07:17:42.803Z,55.23
2019-02-19T07:20:11.810Z,66.47
2019-02-19T07:22:40.680Z,50.67
2019-02-19T07:25:11.978Z,52.23
2019-02-19T07:27:40.785Z,51.98
2019-02-19T07:30:11.546Z,62.30
2019-02-19T07:32:40.297Z,56.50
2019-02-19T07:35:10.696Z,59.70
2019-02-19T07:37:39.374Z,73.28
2019-02-19T07:40:09.355Z,68.67
2019-02-19T07:42:38.028Z,61.80
2019-02-19T07:45:09.736Z,69.80
2019-02-19T07:47:38.551Z,57.33
2019-02-19T07:50:09.938Z,53.68
2019-02-19T07:52:38.708Z,56.40
2019-02-19T07:55:09.743Z,57.98
2019-02-19T07:57:38.416Z,110.63
2019-02-19T08:00:12.415Z,93.25
2019-02-19T08:02:41.338Z,86.63
2019-02-19T08:05:10.081Z,62.30
2019-02-19T08:07:38.865Z,71.87
2019-02-19T08:10:13.841Z,65.95
2019-02-19T08:12:42.480Z,63.78
2019-02-19T08:15:12.296Z,66.45
2019-02-19T08:17:41.118Z,70.35
2019-02-19T08:20:15.866Z,72.92
2019-02-19T08:22:40.936Z,65.65
2019-02-19T08:25:09.607Z,62.73
2019-02-19T08:27:38.235Z,64.50
2019-02-19T08:30:11.211Z,61.37
2019-02-19T08:32:40.304Z,59.98
2019-02-19T08:35:09.093Z,56.65
2019-02-19T08:37:37.896Z,57.88
2019-02-19T08:40:09.603Z,59.55
2019-02-19T08:42:38.324Z,55.88
2019-02-19T08:45:09.422Z,58.92
2019-02-19T08:47:42.767Z,53.35
2019-02-19T08:50:08.944Z,48.90
2019-02-19T08:52:37.746Z,43.90
2019-02-19T08:55:07.491Z,50.98
2019-02-19T08:57:36.295Z,52.13
2019-02-19T09:00:08.086Z,51.73
2019-02-19T09:02:36.776Z,44.75
2019-02-19T09:05:07.525Z,50.98
2019-02-19T09:07:36.367Z,49.18
2019-02-19T09:10:07.659Z,47.40
2019-02-19T09:12:36.456Z,42.60
2019-02-19T09:15:07.826Z,47.53
2019-02-19T09:17:36.616Z,41.33
2019-02-19T09:20:08.301Z,41.45
2019-02-19T09:22:37.115Z,38.30
2019-02-19T09:25:08.681Z,35.78
2019-02-19T09:27:37.966Z,36.30
2019-02-19T09:30:12.461Z,31.95
2019-02-19T09:32:41.101Z,31.17
2019-02-19T09:35:10.376Z,33.98
2019-02-19T09:37:39.266Z,31.25
2019-02-19T09:40:11.367Z,32.15
2019-02-19T09:42:40.306Z,25.50
2019-02-19T09:45:10.696Z,35.23
2019-02-19T09:47:39.531Z,29.12
2019-02-19T09:50:10.535Z,25.40
2019-02-19T09:52:39.189Z,26.30
2019-02-19T09:55:08.348Z,26.12
2019-02-19T09:57:37.071Z,26.30
2019-02-19T10:00:14.126Z,34.63
2019-02-19T10:02:43.940Z,28.38
2019-02-19T10:05:12.949Z,26.02
2019-02-19T10:07:41.747Z,30.60
2019-02-19T10:10:19.380Z,30.55
2019-02-19T10:12:48.050Z,23.52
2019-02-19T10:15:16.776Z,25.20
2019-02-19T10:17:45.576Z,23.85
2019-02-19T10:20:14.440Z,27.00
2019-02-19T10:22:43.175Z,38.30
2019-02-19T10:25:14.286Z,27.02
2019-02-19T10:27:43.355Z,29.85
2019-02-19T10:30:17.951Z,31.00
2019-02-19T10:32:46.724Z,32.55
2019-02-19T10:35:15.495Z,26.02
2019-02-19T10:37:44.653Z,25.10
2019-02-19T10:40:18.225Z,26.20
2019-02-19T10:42:47.033Z,24.43
2019-02-19T10:45:24.461Z,25.55
2019-02-19T10:47:53.319Z,26.27
2019-02-19T10:50:22.007Z,23.98
2019-02-19T10:52:51.758Z,27.65
2019-02-19T10:55:21.020Z,25.75
2019-02-19T10:57:49.736Z,39.92
2019-02-19T11:00:23.086Z,26.85
2019-02-19T11:02:51.837Z,30.43
2019-02-19T11:05:21.207Z,27.93
2019-02-19T11:07:50.058Z,28.02
2019-02-19T11:10:18.715Z,28.95
2019-02-19T11:12:47.741Z,27.90
2019-02-19T11:15:17.460Z,25.15
2019-02-19T11:17:46.994Z,27.40
2019-02-19T11:20:18.910Z,25.97
2019-02-19T11:22:47.672Z,27.30
2019-02-19T11:25:16.483Z,43.92
2019-02-19T11:27:45.255Z,24.05
2019-02-19T11:30:20.338Z,27.13
2019-02-19T11:32:49.286Z,21.42
2019-02-19T11:35:17.936Z,25.30
2019-02-19T11:37:46.993Z,22.55
2019-02-19T11:40:15.986Z,23.05
2019-02-19T11:42:44.852Z,24.12
2019-02-19T11:45:17.936Z,24.72
2019-02-19T11:47:46.860Z,21.42
2019-02-19T11:50:15.655Z,22.98
2019-02-19T11:52:44.304Z,94.83
2019-02-19T11:55:18.446Z,23.65
2019-02-19T11:57:47.175Z,118.25
2019-02-19T12:00:18.652Z,80.47
2019-02-19T12:02:47.303Z,22.30
2019-02-19T12:05:16.178Z,22.22
2019-02-19T12:07:44.935Z,23.98
2019-02-19T12:10:13.735Z,25.20
2019-02-19T12:12:42.573Z,21.62
2019-02-19T12:15:12.936Z,21.62
2019-02-19T12:17:41.737Z,24.72
2019-02-19T12:20:12.775Z,24.90
2019-02-19T12:22:41.403Z,25.62
2019-02-19T12:25:10.708Z,29.52
2019-02-19T12:27:39.605Z,27.40
2019-02-19T12:30:14.731Z,27.58
2019-02-19T12:32:43.501Z,26.40
2019-02-19T12:35:12.325Z,26.77
2019-02-19T12:37:41.047Z,29.70
2019-02-19T12:40:14.073Z,28.50
2019-02-19T12:42:42.975Z,27.48
2019-02-19T12:45:13.255Z,24.52
2019-02-19T12:47:42.056Z,26.75
2019-02-19T12:50:16.297Z,28.98
2019-02-19T12:52:45.185Z,35.08
2019-02-19T12:55:13.826Z,29.85
2019-02-19T12:57:42.552Z,43.33
2019-02-19T13:00:13.842Z,29.67
2019-02-19T13:02:44.055Z,28.40
2019-02-19T13:05:14.538Z,22.93
2019-02-19T13:07:43.173Z,26.00
2019-02-19T13:10:13.141Z,28.70
2019-02-19T13:12:41.965Z,28.35
2019-02-19T13:15:16.466Z,22.25
2019-02-19T13:17:45.257Z,23.98
2019-02-19T13:20:15.778Z,26.10
2019-02-19T13:22:44.863Z,31.62
2019-02-19T13:25:13.586Z,28.95
2019-02-19T13:27:42.730Z,38.90
2019-02-19T13:30:21.908Z,55.03
2019-02-19T13:32:51.020Z,50.17
2019-02-19T13:35:19.977Z,71.65
2019-02-19T13:37:48.847Z,45.17
2019-02-19T13:40:21.116Z,48.92
2019-02-19T13:42:49.753Z,83.85
2019-02-19T13:45:18.791Z,55.00
2019-02-19T13:47:47.449Z,65.52
2019-02-19T13:50:22.706Z,59.48
2019-02-19T13:52:55.974Z,65.70
2019-02-19T13:55:26.457Z,60.78
2019-02-19T13:57:55.185Z,61.23
2019-02-19T14:00:25.588Z,36.70
2019-02-19T14:02:54.194Z,35.38
2019-02-19T14:05:22.844Z,31.93
2019-02-19T14:07:51.546Z,40.03
2019-02-19T14:10:20.487Z,37.83
2019-02-19T14:12:49.293Z,35.35
2019-02-19T14:15:35.785Z,39.33
2019-02-19T14:18:06.404Z,38.80
2019-02-19T14:20:51.888Z,41.20
2019-02-19T14:23:22.229Z,40.92
2019-02-19T14:25:55.906Z,40.58
2019-02-19T14:28:26.126Z,31.97
2019-02-19T14:31:12.653Z,33.40
2019-02-19T14:33:48.787Z,41.98
2019-02-19T14:36:15.027Z,37.00
2019-02-19T14:38:45.426Z,36.88
2019-02-19T14:41:22.026Z,50.58
2019-02-19T14:43:52.305Z,33.02
2019-02-19T14:46:38.705Z,37.15
2019-02-19T14:49:14.865Z,34.00
2019-02-19T14:51:54.648Z,34.03
2019-02-19T14:54:33.586Z,39.85
2019-02-19T14:57:09.847Z,28.35
2019-02-19T14:59:40.145Z,33.53
2019-02-19T15:02:29.213Z,30.12
2019-02-19T15:04:59.509Z,44.20
2019-02-19T15:07:32.785Z,46.02
2019-02-19T15:10:19.236Z,37.38
2019-02-19T15:13:01.785Z,34.43
2019-02-19T15:15:48.545Z,35.90
2019-02-19T15:18:18.865Z,35.10
2019-02-19T15:20:58.546Z,43.40
2019-02-19T15:23:29.091Z,41.33
2019-02-19T15:25:59.667Z,35.43
2019-02-19T15:28:35.827Z,37.20
2019-02-19T15:31:09.226Z,36.38
2019-02-19T15:33:56.145Z,31.85
2019-02-19T15:36:42.932Z,38.63
2019-02-19T15:39:19.106Z,32.90
2019-02-19T15:42:05.830Z,35.05
2019-02-19T15:44:38.945Z,38.70
2019-02-19T15:47:24.224Z,40.88
2019-02-19T15:50:06.657Z,41.28
2019-02-19T15:52:45.914Z,41.90
2019-02-19T15:55:31.889Z,43.83
2019-02-19T15:58:04.781Z,43.73
2019-02-19T16:00:43.809Z,48.05
2019-02-19T16:03:17.535Z,51.77
2019-02-19T16:05:47.824Z,101.75
2019-02-19T16:08:21.766Z,61.68
2019-02-19T16:13:21.924Z,52.60
2019-02-19T16:15:55.903Z,42.67
2019-02-19T16:18:38.646Z,40.28
2019-02-19T16:21:13.606Z,42.60
2019-02-19T16:23:45.270Z,43.40
2019-02-19T16:26:21.820Z,39.58
2019-02-19T16:28:56.639Z,42.85
2019-02-19T16:31:34.385Z,41.10
2019-02-19T16:34:11.825Z,38.05
2019-02-19T16:36:52.522Z,39.05
2019-02-19T16:39:33.732Z,52.98
2019-02-19T16:42:04.434Z,58.73
2019-02-19T16:44:38.446Z,53.08
2019-02-19T16:50:12.889Z,52.50
2019-02-19T16:52:56.364Z,54.95
2019-02-19T16:55:36.627Z,79.27
2019-02-19T16:58:11.164Z,80.67
2019-02-19T17:00:42.951Z,56.50
2019-02-19T17:03:16.846Z,46.98
2019-02-19T17:08:18.544Z,55.15
2019-02-19T17:11:02.466Z,43.68
2019-02-19T17:13:58.096Z,51.58
2019-02-19T17:16:26.247Z,40.83
2019-02-19T17:18:58.224Z,43.75
2019-02-19T17:21:36.085Z,52.67
2019-02-19T17:24:13.204Z,59.53
2019-02-19T17:26:44.846Z,89.10
2019-02-19T17:29:31.824Z,71.40
2019-02-19T17:32:21.765Z,49.77
2019-02-19T17:34:56.685Z,46.80
2019-02-19T17:37:40.145Z,45.92
2019-02-19T17:40:11.784Z,77.62
2019-02-19T17:43:01.446Z,76.80
2019-02-19T17:45:45.986Z,89.10
2019-02-19T17:48:17.705Z,102.02
2019-02-19T17:50:51.829Z,73.50
2019-02-19T17:53:29.604Z,67.58
2019-02-19T17:56:13.124Z,66.80
2019-02-19T17:58:50.267Z,60.03
2019-02-19T18:01:30.928Z,57.13
2019-02-19T18:04:01.585Z,42.45
2019-02-19T18:06:32.905Z,44.18
2019-02-19T18:09:03.665Z,37.83
2019-02-19T18:11:35.665Z,38.85
2019-02-19T18:14:06.659Z,37.80
2019-02-19T18:16:40.433Z,42.13
2019-02-19T18:19:11.025Z,37.67
2019-02-19T18:21:41.913Z,42.65
2019-02-19T18:24:13.424Z,39.80
2019-02-19T18:26:44.829Z,39.83
2019-02-19T18:29:15.826Z,39.88
2019-02-19T18:31:46.568Z,36.68
2019-02-19T18:34:16.948Z,39.30
2019-02-19T18:36:47.665Z,75.70
2019-02-19T18:39:18.728Z,123.00
2019-02-19T18:41:49.124Z,70.78
2019-02-19T18:44:19.844Z,45.45
2019-02-19T18:46:50.227Z,43.33
2019-02-19T18:49:20.945Z,40.48
2019-02-19T18:51:51.345Z,36.08
2019-02-19T18:54:21.525Z,37.03
2019-02-19T18:56:52.164Z,30.37
2019-02-19T18:59:22.645Z,19.50
2019-02-19T19:01:53.265Z,63.83
2019-02-19T19:04:23.984Z,17.90
2019-02-19T19:06:55.784Z,17.15
2019-02-19T19:09:26.404Z,37.40
2019-02-19T19:11:57.115Z,23.18
2019-02-19T19:14:27.655Z,39.98
2019-02-19T19:16:58.235Z,17.85
2019-02-19T19:19:28.625Z,54.75
2019-02-19T19:21:59.344Z,44.77
2019-02-19T19:24:30.084Z,32.90
2019-02-19T19:27:00.804Z,18.70
2019-02-19T19:29:31.585Z,21.70
2019-02-19T19:32:02.566Z,23.98
2019-02-19T19:34:33.285Z,15.53
2019-02-19T19:37:04.006Z,25.37
2019-02-19T19:39:34.726Z,22.37
2019-02-19T19:42:05.461Z,26.50
2019-02-19T19:44:36.165Z,22.90
2019-02-19T19:47:06.884Z,21.75
2019-02-19T19:49:37.610Z,26.97
2019-02-19T19:52:08.326Z,24.23
2019-02-19T19:54:38.724Z,25.90
2019-02-19T19:57:10.724Z,25.12
2019-02-19T19:59:41.766Z,40.30
2019-02-19T20:02:12.487Z,32.28
2019-02-19T20:04:43.204Z,34.53
2019-02-19T20:07:14.245Z,19.73
2019-02-19T20:09:45.092Z,21.00
2019-02-19T20:12:14.182Z,22.37
2019-02-19T20:14:43.538Z,28.55
2019-02-19T20:17:14.050Z,24.90
2019-02-19T20:19:45.285Z,26.02
2019-02-19T20:22:16.005Z,29.12
2019-02-19T20:24:47.375Z,40.10
2019-02-19T20:27:18.645Z,45.73
2019-02-19T20:29:48.584Z,48.52
2019-02-19T20:32:18.886Z,38.53
2019-02-19T20:34:49.609Z,32.17
2019-02-19T20:37:22.213Z,33.75
2019-02-19T20:39:55.586Z,28.10
2019-02-19T20:42:27.524Z,33.65
2019-02-19T20:45:00.827Z,34.92
2019-02-19T20:47:31.526Z,36.50
2019-02-19T20:50:01.866Z,33.02
2019-02-19T20:52:34.249Z,34.43
2019-02-19T20:55:04.967Z,33.85
2019-02-19T20:57:35.684Z,32.42
2019-02-19T21:00:07.612Z,35.70
2019-02-19T21:02:39.366Z,33.60
2019-02-19T21:05:11.048Z,32.23
2019-02-19T21:07:41.765Z,32.05
2019-02-19T21:10:14.846Z,53.65
2019-02-19T21:12:44.905Z,278.45
2019-02-19T21:15:15.525Z,346.85
2019-02-19T21:17:45.584Z,77.00
2019-02-19T21:20:16.646Z,58.52
2019-02-19T21:22:48.328Z,36.48
2019-02-19T21:25:18.545Z,35.95
2019-02-19T21:27:49.124Z,35.92
2019-02-19T21:30:19.847Z,46.00
2019-02-19T21:32:50.244Z,36.85
2019-02-19T21:35:20.965Z,37.55
2019-02-19T21:37:51.366Z,39.30
2019-02-19T21:40:22.064Z,37.42
2019-02-19T21:42:52.804Z,39.90
2019-02-19T21:45:23.527Z,40.88
2019-02-19T21:47:54.248Z,38.65
2019-02-19T21:50:24.968Z,40.33
2019-02-19T21:52:55.446Z,40.92
2019-02-19T21:55:26.126Z,40.70
2019-02-19T21:57:56.205Z,43.20
2019-02-19T22:00:26.224Z,41.40
2019-02-19T22:02:55.665Z,39.40
2019-02-19T22:05:24.564Z,41.98
2019-02-19T22:07:53.657Z,39.50
2019-02-19T22:10:22.747Z,38.90
2019-02-19T22:12:51.544Z,44.03
2019-02-19T22:15:20.304Z,41.77
2019-02-19T22:17:49.211Z,43.60
2019-02-19T22:20:40.429Z,42.45
2019-02-19T22:23:09.085Z,47.03
2019-02-19T22:25:37.929Z,43.60
2019-02-19T22:28:06.705Z,50.43
2019-02-19T22:30:35.570Z,54.73
2019-02-19T22:33:04.204Z,53.02
2019-02-19T22:35:32.864Z,48.05
2019-02-19T22:38:01.585Z,41.53
2019-02-19T22:40:30.307Z,46.15
2019-02-19T22:42:59.307Z,48.40
2019-02-19T22:45:27.986Z,46.85
2019-02-19T22:47:56.792Z,50.67
2019-02-19T22:50:25.666Z,54.05
2019-02-19T22:52:54.368Z,48.00
2019-02-19T22:55:34.086Z,53.60
2019-02-19T22:58:02.873Z,61.08
2019-02-19T23:00:49.910Z,51.55
2019-02-19T23:03:26.065Z,51.42
2019-02-19T23:05:54.925Z,50.15
2019-02-19T23:08:23.664Z,54.15
2019-02-19T23:10:52.504Z,52.38
2019-02-19T23:13:21.264Z,54.08
2019-02-19T23:15:50.064Z,56.73
2019-02-19T23:18:18.966Z,57.40
2019-02-19T23:20:48.065Z,59.23
2019-02-19T23:23:16.785Z,56.48
2019-02-19T23:25:45.645Z,53.58
2019-02-19T23:28:14.385Z,53.85
2019-02-19T23:30:43.204Z,59.38
2019-02-19T23:33:12.107Z,56.73
2019-02-19T23:35:51.446Z,58.92
2019-02-19T23:38:20.145Z,55.50
2019-02-19T23:40:48.965Z,49.13
2019-02-19T23:43:17.666Z,54.93
2019-02-19T23:45:46.564Z,56.37
2019-02-19T23:48:15.366Z,55.28
2019-02-19T23:50:44.146Z,56.02
2019-02-19T23:53:12.777Z,62.53
2019-02-19T23:55:41.826Z,57.33
2019-02-19T23:58:10.546Z,61.48
